Sims, Indiana
Current Conditions -  °F | °C
As of 2:15 PM on Monday 20 Oct 2014 (Local Time) from KMZZ Reporting Station
Overcast Overcast  
Wind Chill: 58°   Ceiling: 1800
Heat Index: 58°   Visibility: 7mi
Dew Point: 49°   Wind: 13mph
Humidity: 71%   Direction: 230°SW
Pressure: 29.83"   Gusts: 18mph
Location:  40.5005°N, 85.8254°W
Report Text: KMZZ 201815Z AUTO 23011G16KT 7SM OVC018 15/10 A2983 RMK AO2 T01470095
Loading
Personal Weather Stations






























Interactive Weather Map
Tropical Storm Tracking
New forecast layout! Learn more

10-Day Weather Forecast

Advertisements
Track Severe Weather on mobile